Decoded Metar for VTUO (BURIRUM in THAILAND) (IATA:N/A) | Meteo·Mobile Aviation Weather
aviador You're here:

VTUO Decoded Metar

BURIRUM in THAILAND
Report Time2019-07-24 04:00:00
UTC Time2019-07-24 04:41:15
Flight Rules vfr VFR
Wind250° at 06 kt
W.Decomp.*RWY 22: 5.2 kt HW 3.0 kt RCW
Visibility9999 m
Phenomena:N/A
Clouds:Scattered 025 Hf
Broken 100 Hf
Expected CloudBase > 2,000 ft AGL from Temp-Dew spread
Ceiling10,000 ft
Temp31°C (ISA +17)
Dew Point26°C (75% RH)
Heat Index39.2°C
QNH1010 hPa
Density Alt3,110 ft
Elevation600 ft
Report Wrong Elevation
Raw Report
VTUO 240400Z 25006KT 210V290 9999 SCT025 BKN100 31/26 Q1010
NOSIG=

Extra information for VTUO:More info

Metar Taf Metar & Taf Last 4 Metars F.Rules Stats Wind Profile Meteogram Temp Stats Airport Information Weather charts Add Link Nearby VenuesMetar ALERT Operation Metar Decoded Social comments